Time;durP1;ratioP1;P1;durP2;ratioP2;P2;SDS_P1;SDS_P2;PMS_P1;PMS_P2;Temp;Humidity;BMP_temperature;BMP_pressure;BME280_temperature;BME280_humidity;BME280_pressure;Samples;Min_cycle;Max_cycle;Signal;HPM_P1;HPM_P2
2022/08/24 00:00:06;;;;;;;46.65;31.62;;;;;;;19.19;100.00;98184.56;1765232;79;20982;-89
2022/08/24 00:02:34;;;;;;;54.50;32.78;;;;;;;19.19;100.00;98183.77;1747908;81;20947;-88
2022/08/24 00:05:00;;;;;;;56.50;33.18;;;;;;;19.19;100.00;98181.82;1742170;81;21119;-90
2022/08/24 00:07:26;;;;;;;53.63;33.20;;;;;;;19.18;100.00;98177.47;1740403;81;20871;-89
2022/08/24 00:09:53;;;;;;;58.92;32.95;;;;;;;19.17;100.00;98175.86;1738144;81;21907;-90
2022/08/24 00:12:19;;;;;;;53.15;31.07;;;;;;;19.18;100.00;98180.78;1765782;80;21445;-88
2022/08/24 00:14:45;;;;;;;52.23;33.78;;;;;;;19.19;100.00;98183.77;1765946;80;20958;-90
2022/08/24 00:17:11;;;;;;;56.33;32.78;;;;;;;19.14;100.00;98184.20;1756897;81;21304;-90
2022/08/24 00:19:37;;;;;;;52.17;30.62;;;;;;;19.12;100.00;98188.39;1741248;81;20962;-90
2022/08/24 00:22:04;;;;;;;54.65;33.75;;;;;;;19.11;100.00;98190.34;1764869;81;20969;-90
2022/08/24 00:24:30;;;;;;;56.30;33.98;;;;;;;19.14;100.00;98182.83;1766126;80;21422;-90
2022/08/24 00:26:56;;;;;;;53.85;32.05;;;;;;;19.16;100.00;98183.30;1733831;81;21644;-91
2022/08/24 00:29:22;;;;;;;57.10;33.23;;;;;;;19.18;100.00;98174.72;1741195;81;21060;-89
2022/08/24 00:31:48;;;;;;;50.65;34.18;;;;;;;19.21;100.00;98178.16;1743270;81;20871;-90
2022/08/24 00:34:16;;;;;;;54.00;32.95;;;;;;;19.21;100.00;98181.48;1753129;81;20946;-88
2022/08/24 00:36:42;;;;;;;50.00;29.57;;;;;;;19.20;100.00;98186.17;1724580;82;20957;-90
2022/08/24 00:39:08;;;;;;;53.63;31.73;;;;;;;19.17;100.00;98185.47;1757690;81;21085;-90
2022/08/24 00:41:35;;;;;;;52.55;31.15;;;;;;;19.17;100.00;98185.47;1765877;80;21443;-90
2022/08/24 00:44:03;;;;;;;52.38;33.25;;;;;;;19.18;100.00;98187.65;1765622;80;20958;-89
2022/08/24 00:46:46;;;;;;;50.20;30.57;;;;;;;19.14;100.00;98186.95;1759411;80;21023;-90
2022/08/24 00:49:36;;;;;;;55.03;33.75;;;;;;;19.13;100.00;98189.44;1740465;81;20999;-89
2022/08/24 00:52:16;;;;;;;56.60;33.28;;;;;;;19.12;100.00;98196.06;1750769;81;20963;-89
2022/08/24 00:54:50;;;;;;;58.23;34.43;;;;;;;19.12;100.00;98186.45;1740673;82;21612;-90
2022/08/24 00:57:20;;;;;;;55.10;32.93;;;;;;;19.14;100.00;98188.33;1739328;81;21467;-89
2022/08/24 00:59:51;;;;;;;55.90;30.48;;;;;;;19.15;100.00;98185.81;1758565;80;21008;-89
2022/08/24 01:02:23;;;;;;;52.50;30.02;;;;;;;19.15;100.00;98192.67;1740847;81;20996;-89
2022/08/24 01:04:56;;;;;;;47.93;30.32;;;;;;;19.12;100.00;98191.95;1736300;81;21027;-90
2022/08/24 01:07:23;;;;;;;52.30;30.77;;;;;;;19.09;100.00;98192.63;1751565;81;21004;-90
2022/08/24 01:09:51;;;;;;;56.50;33.55;;;;;;;19.09;100.00;98197.31;1733973;81;20978;-89
2022/08/24 01:12:17;;;;;;;49.08;30.82;;;;;;;19.08;100.00;98201.20;1761223;80;20958;-90
2022/08/24 01:14:43;;;;;;;49.55;30.45;;;;;;;19.06;100.00;98201.53;1741956;81;20883;-89
2022/08/24 01:19:54;;;;;;;46.10;28.87;;;;;;;19.05;100.00;98215.56;1700668;81;21238;-90
2022/08/24 01:22:56;;;;;;;49.63;29.40;;;;;;;19.02;100.00;98219.78;1737228;81;21039;-89
2022/08/24 01:25:24;;;;;;;46.85;28.23;;;;;;;19.01;100.00;98211.88;1716148;82;21298;-90
2022/08/24 01:27:52;;;;;;;53.17;29.98;;;;;;;18.99;100.00;98226.52;1743896;81;20997;-89
2022/08/24 01:30:18;;;;;;;44.80;28.87;;;;;;;18.95;100.00;98216.74;1754425;81;21015;-89
2022/08/24 01:32:56;;;;;;;43.73;26.50;;;;;;;18.93;100.00;98220.39;1737918;81;21308;-89
2022/08/24 01:35:22;;;;;;;49.45;29.80;;;;;;;18.93;100.00;98212.73;1736824;82;21011;-89
2022/08/24 01:37:48;;;;;;;45.95;28.40;;;;;;;18.95;100.00;98214.00;1740345;82;20959;-89
2022/08/24 01:40:14;;;;;;;40.48;26.60;;;;;;;18.98;100.00;98211.19;1740609;82;22917;-90
2022/08/24 01:42:49;;;;;;;43.50;26.40;;;;;;;19.00;100.00;98213.02;1740407;82;21416;-90
2022/08/24 01:45:15;;;;;;;48.55;28.70;;;;;;;19.00;100.00;98210.28;1740595;82;21163;-89
2022/08/24 01:47:41;;;;;;;47.80;30.55;;;;;;;18.98;100.00;98210.61;1739429;82;20952;-90
2022/08/24 01:50:07;;;;;;;42.83;28.27;;;;;;;18.99;100.00;98210.05;1739904;81;20878;-89
2022/08/24 01:52:33;;;;;;;44.45;27.17;;;;;;;18.97;100.00;98212.29;1766292;80;20966;-91
2022/08/24 01:54:59;;;;;;;44.45;27.80;;;;;;;18.98;100.00;98211.98;1765905;81;20894;-91
2022/08/24 01:57:25;;;;;;;42.50;28.42;;;;;;;18.97;100.00;98213.12;1751611;81;21199;-89
2022/08/24 01:59:52;;;;;;;43.60;27.30;;;;;;;18.90;100.00;98212.83;1744331;81;20950;-91
2022/08/24 02:02:24;;;;;;;45.35;27.62;;;;;;;18.88;100.00;98220.02;1747603;81;21034;-91
2022/08/24 02:04:50;;;;;;;47.08;28.92;;;;;;;18.86;100.00;98217.34;1763735;81;20999;-91
2022/08/24 02:07:17;;;;;;;51.70;29.50;;;;;;;18.84;100.00;98211.39;1755889;81;20953;-90
2022/08/24 02:09:43;;;;;;;51.00;30.08;;;;;;;18.84;100.00;98214.94;1740011;81;21291;-88
2022/08/24 02:12:09;;;;;;;48.85;31.10;;;;;;;18.86;100.00;98212.66;1729379;80;21075;-88
2022/08/24 02:14:36;;;;;;;43.92;29.95;;;;;;;18.85;100.00;98218.48;1760040;81;20957;-88
2022/08/24 02:17:04;;;;;;;44.67;29.30;;;;;;;18.85;100.00;98213.00;1765000;80;21383;-89
2022/08/24 02:19:30;;;;;;;48.05;29.25;;;;;;;18.85;100.00;98210.25;1770097;80;20955;-90
2022/08/24 02:21:56;;;;;;;45.80;29.15;;;;;;;18.85;100.00;98219.86;1765910;80;21402;-90
2022/08/24 02:24:22;;;;;;;43.15;27.42;;;;;;;18.85;100.00;98226.72;1766014;80;21445;-88
2022/08/24 02:26:48;;;;;;;36.33;23.60;;;;;;;18.83;100.00;98235.30;1765549;80;20969;-89
2022/08/24 02:29:14;;;;;;;43.33;25.70;;;;;;;18.82;100.00;98237.80;1765897;80;20887;-92
2022/08/24 02:31:40;;;;;;;38.90;26.00;;;;;;;18.80;100.00;98235.96;1765923;80;20946;-91
2022/08/24 02:34:06;;;;;;;46.00;26.68;;;;;;;18.77;100.00;98233.85;1765760;80;21843;-90
2022/08/24 02:36:32;;;;;;;38.78;25.50;;;;;;;18.76;100.00;98233.61;1755969;80;20931;-89
2022/08/24 02:38:58;;;;;;;53.52;26.82;;;;;;;18.76;100.00;98234.19;1765836;80;20870;-89
2022/08/24 02:41:24;;;;;;;51.08;26.40;;;;;;;18.71;100.00;98232.41;1760681;80;20919;-91
2022/08/24 02:43:53;;;;;;;47.27;29.40;;;;;;;18.69;100.00;98229.19;1740630;82;21000;-90
2022/08/24 02:46:22;;;;;;;;;;;;;;;18.71;100.00;98227.48;1747416;81;21405;-91
2022/08/24 02:48:47;;;;;;;;;;;;;;;18.73;100.00;98227.98;1754033;81;20173;-90
2022/08/24 02:51:24;;;;;;;46.92;27.20;;;;;;;18.75;100.00;98225.72;1729260;81;20265;-91
2022/08/24 02:53:50;;;;;;;42.78;27.00;;;;;;;18.76;100.00;98225.38;1746577;81;20948;-91
2022/08/24 02:56:17;;;;;;;45.23;27.95;;;;;;;18.76;100.00;98220.46;1740824;82;20903;-89
2022/08/24 02:58:46;;;;;;;39.75;25.97;;;;;;;18.76;100.00;98216.34;1740477;82;21105;-91
2022/08/24 03:01:12;;;;;;;45.52;28.27;;;;;;;18.77;100.00;98213.27;1740650;82;21050;-90
2022/08/24 03:03:39;;;;;;;41.63;25.75;;;;;;;18.81;100.00;98215.61;1750846;82;21009;-90
2022/08/24 03:06:06;;;;;;;38.78;27.05;;;;;;;18.84;100.00;98221.00;1740629;82;21015;-89
2022/08/24 03:08:32;;;;;;;45.12;27.42;;;;;;;18.85;100.00;98222.03;1739626;81;21014;-90
2022/08/24 03:10:59;;;;;;;49.73;27.25;;;;;;;18.86;100.00;98220.90;1746962;81;21198;-91
2022/08/24 03:13:27;;;;;;;42.17;26.02;;;;;;;18.86;100.00;98227.77;1755167;80;21011;-88
2022/08/24 03:15:54;;;;;;;42.30;26.23;;;;;;;18.84;100.00;98227.30;1752266;81;21463;-91
2022/08/24 03:18:21;;;;;;;36.53;24.90;;;;;;;18.83;100.00;98233.92;1743784;81;21062;-89
2022/08/24 03:20:48;;;;;;;39.95;24.20;;;;;;;18.80;100.00;98231.84;1751678;81;21403;-91
2022/08/24 03:23:15;;;;;;;40.05;24.80;;;;;;;18.80;100.00;98229.64;1732668;81;21270;-91
2022/08/24 03:25:41;;;;;;;43.35;26.60;;;;;;;18.82;100.00;98227.39;1750259;81;21029;-91
2022/08/24 03:28:07;;;;;;;46.37;28.55;;;;;;;18.84;100.00;98231.98;1711236;82;20854;-91
2022/08/24 03:30:33;;;;;;;42.67;27.32;;;;;;;18.86;100.00;98228.33;1739101;81;21376;-90
2022/08/24 03:32:59;;;;;;;43.73;25.75;;;;;;;18.87;100.00;98228.00;1744966;81;21069;-89
2022/08/24 03:35:25;;;;;;;48.13;29.00;;;;;;;18.89;100.00;98224.95;1747191;81;21312;-91
2022/08/24 03:37:51;;;;;;;43.85;27.27;;;;;;;18.88;100.00;98225.52;1743710;81;20919;-89
2022/08/24 03:40:19;;;;;;;46.25;29.37;;;;;;;18.88;100.00;98231.00;1764682;81;20894;-91
2022/08/24 03:42:45;;;;;;;46.68;28.10;;;;;;;18.88;100.00;98235.13;1762781;81;20958;-89
2022/08/24 03:45:11;;;;;;;49.23;29.45;;;;;;;18.89;100.00;98237.30;1737989;81;21416;-91
2022/08/24 03:47:37;;;;;;;45.80;29.72;;;;;;;18.91;100.00;98234.22;1764901;81;22035;-89
2022/08/24 03:50:04;;;;;;;51.60;30.32;;;;;;;18.89;100.00;98233.19;1741917;81;20978;-89
2022/08/24 03:52:30;;;;;;;51.98;31.82;;;;;;;18.90;100.00;98233.98;1736444;81;21030;-88
2022/08/24 03:54:56;;;;;;;44.42;26.20;;;;;;;18.88;100.00;98243.36;1758484;81;20871;-89
2022/08/24 03:57:22;;;;;;;40.48;24.55;;;;;;;18.90;100.00;98246.34;1720489;81;20987;-90
2022/08/24 03:59:48;;;;;;;37.48;24.27;;;;;;;18.88;100.00;98247.48;1745040;81;21159;-89
2022/08/24 04:02:14;;;;;;;42.65;26.35;;;;;;;18.82;100.00;98241.92;1731964;81;21035;-91
2022/08/24 04:04:40;;;;;;;45.58;28.02;;;;;;;18.82;100.00;98235.06;1739560;81;20891;-91
2022/08/24 04:07:06;;;;;;;41.15;27.25;;;;;;;18.80;100.00;98237.87;1744103;81;20883;-89
2022/08/24 04:09:31;;;;;;;42.17;25.35;;;;;;;18.80;100.00;98240.08;1737896;81;21651;-90
2022/08/24 04:11:58;;;;;;;40.05;24.57;;;;;;;18.79;100.00;98243.92;1764904;79;21309;-91
2022/08/24 04:14:24;;;;;;;51.02;25.77;;;;;;;18.79;100.00;98241.18;1749391;81;21038;-91
2022/08/24 04:16:50;;;;;;;43.83;26.37;;;;;;;18.78;100.00;98240.14;1749640;81;21024;-89
2022/08/24 04:19:17;;;;;;;42.38;26.65;;;;;;;18.77;100.00;98246.20;1723930;81;21039;-89
2022/08/24 04:21:43;;;;;;;45.15;27.50;;;;;;;18.77;100.00;98244.83;1758852;81;21010;-89
2022/08/24 04:24:10;;;;;;;43.00;27.10;;;;;;;18.78;100.00;98245.63;1750227;80;21427;-91
2022/08/24 04:26:38;;;;;;;52.45;31.15;;;;;;;18.79;100.00;98248.62;1738540;81;20948;-88
2022/08/24 04:29:05;;;;;;;50.50;29.87;;;;;;;18.81;100.00;98254.04;1752807;81;21013;-90
2022/08/24 04:31:32;;;;;;;63.35;35.50;;;;;;;18.82;100.00;98249.35;1742447;81;21541;-89
2022/08/24 04:33:58;;;;;;;71.55;40.50;;;;;;;18.79;100.00;98244.50;1707821;82;21057;-88
2022/08/24 04:36:24;;;;;;;72.30;39.75;;;;;;;18.78;100.00;98245.06;1756239;81;21449;-90
2022/08/24 04:38:50;;;;;;;72.90;42.55;;;;;;;18.77;100.00;98246.20;1753461;81;21408;-91
2022/08/24 04:41:19;;;;;;;80.40;40.12;;;;;;;18.81;100.00;98243.62;1740654;81;21018;-90
2022/08/24 04:43:45;;;;;;;70.85;39.48;;;;;;;18.83;100.00;98246.84;1740585;81;21015;-89
2022/08/24 04:46:15;;;;;;;88.07;42.45;;;;;;;18.78;100.00;98245.63;1750999;82;20982;-88
2022/08/24 04:48:43;;;;;;;77.08;41.40;;;;;;;18.79;100.00;98245.30;1750859;82;21857;-89
2022/08/24 04:51:10;;;;;;;74.65;42.40;;;;;;;18.79;100.00;98248.05;1740612;81;20991;-91
2022/08/24 04:53:36;;;;;;;76.25;39.48;;;;;;;18.81;100.00;98247.74;1749022;81;21032;-91
2022/08/24 04:56:03;;;;;;;76.12;42.45;;;;;;;18.81;100.00;98247.74;1683402;83;21385;-91
2022/08/24 04:58:29;;;;;;;80.90;41.25;;;;;;;18.80;100.00;98235.96;1675036;83;21076;-90
2022/08/24 05:00:55;;;;;;;78.20;42.05;;;;;;;18.79;100.00;98239.81;1750928;81;21037;-89
2022/08/24 05:03:21;;;;;;;79.47;44.23;;;;;;;18.82;100.00;98238.38;1765778;81;20951;-91
2022/08/24 05:05:49;;;;;;;86.35;43.10;;;;;;;18.83;100.00;98236.66;1756801;81;21069;-90
2022/08/24 05:08:16;;;;;;;82.42;43.55;;;;;;;18.83;100.00;98243.53;1737683;81;21413;-90
2022/08/24 05:10:45;;;;;;;79.42;45.12;;;;;;;18.84;100.00;98243.77;1753739;81;21019;-91
2022/08/24 05:13:11;;;;;;;78.87;42.35;;;;;;;18.77;100.00;98238.53;1744088;81;21053;-91
2022/08/24 05:15:44;;;;;;;78.07;42.88;;;;;;;18.77;100.00;98237.16;1743005;81;20961;-89
2022/08/24 05:18:11;;;;;;;76.02;43.83;;;;;;;18.76;100.00;98231.44;1735459;81;21019;-90
2022/08/24 05:20:41;;;;;;;78.00;41.53;;;;;;;18.80;100.00;98227.72;1747255;81;20959;-89
2022/08/24 05:23:07;;;;;;;79.45;42.43;;;;;;;18.83;100.00;98230.37;1756693;81;21014;-90
2022/08/24 05:25:33;;;;;;;81.05;43.68;;;;;;;18.86;100.00;98232.45;1750783;81;21126;-89
2022/08/24 05:27:59;;;;;;;77.78;41.37;;;;;;;18.86;100.00;98236.56;1746044;81;21029;-90
2022/08/24 05:30:26;;;;;;;82.47;45.35;;;;;;;18.90;100.00;98240.85;1752949;81;20973;-89
2022/08/24 05:32:52;;;;;;;81.80;43.58;;;;;;;18.93;100.00;98236.06;1749868;79;21111;-89
2022/08/24 05:35:18;;;;;;;88.55;49.40;;;;;;;18.98;100.00;98242.19;1749048;81;20862;-89
2022/08/24 05:37:44;;;;;;;73.47;40.60;;;;;;;19.00;100.00;98237.73;1752647;79;21869;-88
2022/08/24 05:40:12;;;;;;;75.25;40.50;;;;;;;19.02;100.00;98244.50;1754933;81;21567;-92
2022/08/24 05:42:39;;;;;;;70.03;38.73;;;;;;;19.03;100.00;98245.30;1750824;81;21025;-88
2022/08/24 05:45:06;;;;;;;70.12;39.80;;;;;;;19.06;100.00;98248.78;1741305;81;21657;-90
2022/08/24 05:47:33;;;;;;;67.82;37.30;;;;;;;19.12;100.00;98248.81;1746407;81;21437;-91
2022/08/24 05:50:00;;;;;;;65.47;37.40;;;;;;;19.16;100.00;98249.22;1762555;80;21285;-90
2022/08/24 05:52:26;;;;;;;62.65;36.68;;;;;;;19.20;100.00;98251.29;1740327;80;21010;-91
2022/08/24 05:54:54;;;;;;;59.25;34.73;;;;;;;19.20;100.00;98252.66;1745972;81;21410;-90
2022/08/24 05:57:22;;;;;;;59.58;33.50;;;;;;;19.16;100.00;98255.28;1698671;81;40082;-88
2022/08/24 05:59:48;;;;;;;57.67;33.45;;;;;;;19.13;100.00;98258.66;1754138;80;20970;-88
2022/08/24 06:02:15;;;;;;;58.30;32.00;;;;;;;19.13;100.00;98262.22;1748550;78;21177;-91
2022/08/24 06:04:41;;;;;;;71.45;36.10;;;;;;;19.18;100.00;98264.55;1759274;81;21128;-88
2022/08/24 06:07:10;;;;;;;65.05;35.25;;;;;;;19.23;100.00;98261.61;1742219;81;20962;-91
2022/08/24 06:09:37;;;;;;;63.65;33.73;;;;;;;19.29;100.00;98268.53;1748333;81;21061;-88
2022/08/24 06:12:03;;;;;;;60.28;35.83;;;;;;;19.34;100.00;98271.11;1740473;81;21083;-88
2022/08/24 06:14:29;;;;;;;57.58;35.68;;;;;;;19.37;100.00;98273.98;1747971;79;21120;-88
2022/08/24 06:16:55;;;;;;;53.30;30.62;;;;;;;19.37;100.00;98282.23;1742768;81;20935;-88
2022/08/24 06:19:22;;;;;;;51.37;30.32;;;;;;;19.37;100.00;98282.23;1743897;81;20946;-88
2022/08/24 06:21:49;;;;;;;51.92;30.57;;;;;;;19.33;100.00;98281.86;1754234;80;21096;-89
2022/08/24 06:24:16;;;;;;;53.10;30.05;;;;;;;19.34;100.00;98278.78;1749645;81;21470;-91
2022/08/24 06:29:27;;;;;;;44.95;27.07;;;;;;;19.40;100.00;98273.91;1760458;79;21079;-90
2022/08/24 06:31:53;;;;;;;46.70;28.27;;;;;;;19.40;100.00;98282.16;1738309;81;21045;-89
2022/08/24 06:34:19;;;;;;;48.90;28.80;;;;;;;19.39;100.00;98277.77;1738024;81;21594;-88
2022/08/24 06:36:45;;;;;;;48.33;30.05;;;;;;;19.38;100.00;98275.59;1746476;80;20965;-90
2022/08/24 06:39:11;;;;;;;42.23;27.62;;;;;;;19.32;100.00;98274.77;1760422;79;21119;-88
2022/08/24 06:41:37;;;;;;;56.08;30.65;;;;;;;19.33;100.00;98269.50;1741007;81;20914;-88
2022/08/24 06:44:03;;;;;;;51.02;29.05;;;;;;;19.38;100.00;98267.92;1743652;81;20998;-88
2022/08/24 06:46:29;;;;;;;42.78;26.80;;;;;;;19.43;100.00;98274.05;1755869;81;21054;-90
2022/08/24 06:48:55;;;;;;;52.30;28.60;;;;;;;19.41;100.00;98280.45;1764721;79;20952;-90
2022/08/24 06:51:21;;;;;;;50.20;28.57;;;;;;;19.41;100.00;98285.94;1757217;81;20992;-88
2022/08/24 06:53:48;;;;;;;55.30;28.87;;;;;;;19.39;100.00;98289.56;1759659;80;21179;-90
2022/08/24 06:56:15;;;;;;;55.70;30.90;;;;;;;19.37;100.00;98283.60;1743318;81;21089;-87
2022/08/24 06:58:41;;;;;;;49.00;28.23;;;;;;;19.38;100.00;98286.58;1750675;81;21044;-88
2022/08/24 07:01:13;;;;;;;58.95;29.30;;;;;;;19.37;100.00;98289.09;1748503;79;20898;-90
2022/08/24 07:03:39;;;;;;;54.88;31.37;;;;;;;19.39;100.00;98287.39;1757137;81;21037;-88
2022/08/24 07:06:05;;;;;;;48.90;29.70;;;;;;;19.37;100.00;98291.84;1744442;80;21008;-87
2022/08/24 07:08:32;;;;;;;57.67;30.48;;;;;;;19.36;100.00;98295.73;1726705;81;20966;-89
2022/08/24 07:10:58;;;;;;;50.58;28.35;;;;;;;19.38;100.00;98295.39;1690200;84;21153;-91
2022/08/24 07:13:24;;;;;;;50.80;29.25;;;;;;;19.40;100.00;98289.83;1693857;83;21049;-91
2022/08/24 07:15:51;;;;;;;52.13;27.73;;;;;;;19.43;100.00;98293.28;1688628;84;21257;-87
2022/08/24 07:18:18;;;;;;;54.25;30.90;;;;;;;19.49;100.00;98294.48;1677704;84;21115;-90
2022/08/24 07:20:44;;;;;;;55.88;31.45;;;;;;;19.52;100.00;98296.55;1681469;84;20977;-91
2022/08/24 07:23:13;;;;;;;53.28;31.17;;;;;;;19.51;100.00;98298.50;1703575;83;21111;-91
2022/08/24 07:25:38;;;;;;;61.57;31.70;;;;;;;19.47;100.00;98303.03;1696110;82;21065;-90
2022/08/24 07:28:04;;;;;;;58.38;32.35;;;;;;;19.47;100.00;98309.89;1664699;84;21103;-87
2022/08/24 07:30:30;;;;;;;55.65;30.48;;;;;;;19.50;100.00;98313.95;1678146;84;20894;-90
2022/08/24 07:32:57;;;;;;;63.42;33.50;;;;;;;19.52;100.00;98317.16;1685835;84;21008;-91
2022/08/24 07:35:25;;;;;;;57.30;32.50;;;;;;;19.53;100.00;98314.08;1665133;84;21052;-89
2022/08/24 07:37:52;;;;;;;53.50;32.20;;;;;;;19.54;100.00;98316.25;1684341;82;21049;-88
2022/08/24 07:40:18;;;;;;;53.08;30.45;;;;;;;19.52;100.00;98321.28;1689235;84;21524;-90
2022/08/24 07:42:48;;;;;;;52.78;29.95;;;;;;;19.52;100.00;98326.78;1735634;81;20947;-90
2022/08/24 07:45:14;;;;;;;56.18;29.48;;;;;;;19.56;100.00;98310.69;1746889;81;21533;-91
2022/08/24 07:47:41;;;;;;;54.08;29.27;;;;;;;19.64;100.00;98314.53;1742005;81;21062;-91
2022/08/24 07:50:07;;;;;;;61.73;31.27;;;;;;;19.67;100.00;98326.26;1723174;81;21084;-91
2022/08/24 07:52:33;;;;;;;55.88;29.20;;;;;;;19.69;100.00;98338.52;1753809;79;22041;-88
2022/08/24 07:55:00;;;;;;;58.48;28.27;;;;;;;19.67;100.00;98336.69;1748543;80;21024;-91
2022/08/24 07:57:26;;;;;;;61.77;31.60;;;;;;;19.69;100.00;98338.52;1740236;81;21104;-91
2022/08/24 07:59:52;;;;;;;50.50;29.27;;;;;;;19.76;100.00;98338.01;1744025;80;20863;-89
2022/08/24 08:02:18;;;;;;;55.05;28.57;;;;;;;19.82;100.00;98339.41;1749299;79;21085;-88
2022/08/24 08:04:44;;;;;;;55.58;31.55;;;;;;;19.85;100.00;98337.39;1748809;80;21117;-91
2022/08/24 08:07:10;;;;;;;60.92;31.33;;;;;;;19.84;100.00;98339.91;1752637;80;20911;-88
2022/08/24 08:09:37;;;;;;;59.67;31.12;;;;;;;19.89;100.00;98334.19;1757830;80;21045;-88
2022/08/24 08:12:03;;;;;;;53.42;30.23;;;;;;;19.94;100.00;98334.02;1751207;81;21088;-91
2022/08/24 08:14:29;;;;;;;52.88;29.05;;;;;;;19.99;100.00;98339.87;1755356;79;21080;-88
2022/08/24 08:16:55;;;;;;;53.80;29.42;;;;;;;20.04;100.00;98343.81;1754421;80;21772;-88
2022/08/24 08:19:21;;;;;;;59.55;31.75;;;;;;;19.99;100.00;98339.87;1757356;80;20922;-88
2022/08/24 08:24:34;;;;;;;58.05;30.80;;;;;;;20.12;100.00;98340.20;1750899;81;21100;-91
2022/08/24 08:27:00;;;;;;;58.80;31.48;;;;;;;20.25;100.00;98339.14;1746531;79;21121;-89
2022/08/24 08:29:26;;;;;;;54.10;29.63;;;;;;;20.43;100.00;98335.72;1739044;80;21994;-91
2022/08/24 08:31:52;;;;;;;51.50;30.08;;;;;;;20.50;100.00;98333.77;1754963;81;20973;-88
2022/08/24 08:34:18;;;;;;;53.70;28.87;;;;;;;20.47;100.00;98342.14;1749090;79;21041;-88
2022/08/24 08:36:45;;;;;;;44.60;28.10;;;;;;;20.44;100.00;98346.15;1749260;80;21503;-88
2022/08/24 08:39:13;;;;;;;53.02;28.23;;;;;;;20.49;100.00;98348.68;1742619;79;20966;-89
2022/08/24 08:42:05;;;;;;;57.43;30.43;;;;;;;20.59;100.00;98351.59;1740027;81;21072;-88
2022/08/24 08:44:40;;;;;;;47.93;27.27;;;;;;;20.62;100.00;98346.23;1753563;80;21036;-90
2022/08/24 08:47:32;;;;;;;41.77;25.72;;;;;;;20.71;100.00;98337.89;1752722;81;21083;-88
2022/08/24 08:50:27;;;;;;;44.90;26.30;;;;;;;20.77;100.00;98333.22;1750273;79;21029;-90
2022/08/24 08:53:20;;;;;;;45.35;26.02;;;;;;;20.84;100.00;98331.27;1727862;81;21697;-89
2022/08/24 08:56:02;;;;;;;46.75;26.45;;;;;;;20.87;100.00;98340.82;1746185;80;21289;-88
2022/08/24 08:59:04;;;;;;;48.02;27.15;;;;;;;20.94;100.00;98338.33;1739332;81;21441;-88
2022/08/24 09:01:47;;;;;;;41.13;25.50;;;;;;;20.90;100.00;98343.69;1734549;79;20997;-89
2022/08/24 09:04:40;;;;;;;43.73;25.35;;;;;;;20.82;100.00;98350.89;1713519;80;21049;-90
2022/08/24 09:07:40;;;;;;;42.10;25.15;;;;;;;20.82;100.00;98348.13;1745972;81;21009;-90
2022/08/24 09:10:28;;;;;;;37.03;24.12;;;;;;;20.88;100.00;98347.36;1746139;81;21141;-88
2022/08/24 09:13:37;;;;;;;62.60;40.48;;;;;;;20.90;100.00;98353.91;1734032;81;21112;-90
2022/08/24 09:16:23;;;;;;;;;;;;;;;20.94;100.00;98352.90;1742681;81;21041;-88
2022/08/24 09:18:57;;;;;;;45.05;26.93;;;;;;;20.92;100.00;98357.92;1741693;80;20573;-90
2022/08/24 09:22:17;;;;;;;44.67;26.87;;;;;;;20.99;100.00;98354.61;1749934;81;21509;-88
2022/08/24 09:24:57;;;;;;;37.50;23.38;;;;;;;21.05;100.00;98351.89;1740975;81;21536;-91
2022/08/24 09:27:45;;;;;;;38.13;22.82;;;;;;;21.18;100.00;98345.24;1754778;79;20999;-89
2022/08/24 09:30:17;;;;;;;38.23;24.15;;;;;;;21.26;100.00;98353.19;1748182;81;21366;-89
2022/08/24 09:33:21;;;;;;;33.00;21.75;;;;;;;21.32;100.00;98351.86;1746541;80;21072;-89
2022/08/24 09:36:11;;;;;;;34.03;22.00;;;;;;;21.32;100.00;98351.86;1745999;81;21148;-88
2022/08/24 09:39:06;;;;;;;34.33;20.60;;;;;;;21.36;100.00;98344.50;1741267;79;23045;-91
2022/08/24 09:42:22;;;;;;;34.50;21.87;;;;;;;21.51;100.00;98340.27;1754727;81;21041;-90
2022/08/24 09:45:13;;;;;;;28.92;19.35;;;;;;;22.00;100.00;98336.12;1743470;81;20990;-88
2022/08/24 09:48:22;;;;;;;31.50;20.05;;;;;;;22.69;100.00;98330.89;1741260;81;21087;-89
2022/08/24 09:51:15;;;;;;;32.78;21.48;;;;;;;23.33;100.00;98338.19;1746041;79;21429;-90
2022/08/24 09:54:16;;;;;;;32.23;18.85;;;;;;;23.72;100.00;98333.64;1746052;81;22036;-91
2022/08/24 09:57:21;;;;;;;28.25;17.32;;;;;;;24.17;99.86;98327.55;1737945;81;21060;-89
2022/08/24 10:00:13;;;;;;;25.82;16.27;;;;;;;24.17;96.26;98326.17;1755206;81;21539;-90
2022/08/24 10:02:59;;;;;;;22.65;16.10;;;;;;;24.14;97.33;98319.98;1752456;80;20973;-89
2022/08/24 10:06:11;;;;;;;24.87;17.87;;;;;;;24.06;91.80;98324.34;1740607;81;21653;-91
2022/08/24 10:09:05;;;;;;;24.12;16.80;;;;;;;24.19;94.92;98320.30;1741135;80;21131;-90
2022/08/24 10:12:04;;;;;;;28.27;17.25;;;;;;;24.34;89.89;98318.64;1687633;84;21500;-90
2022/08/24 10:15:06;;;;;;;28.77;17.67;;;;;;;24.51;93.22;98324.34;1680108;82;21110;-89
2022/08/24 10:17:43;;;;;;;31.30;16.15;;;;;;;24.42;91.34;98322.58;1741854;81;20989;-81
2022/08/24 10:20:22;;;;;;;26.65;18.12;;;;;;;24.18;87.19;98319.50;1739755;81;21045;-80
2022/08/24 10:23:19;;;;;;;37.83;18.05;;;;;;;24.19;89.55;98325.83;1746962;81;21856;-89
2022/08/24 10:25:54;;;;;;;31.83;17.13;;;;;;;23.94;91.64;98321.12;1731004;81;21453;-87
2022/08/24 10:28:34;;;;;;;33.67;16.87;;;;;;;23.80;90.53;98324.34;1721147;81;21039;-90
2022/08/24 10:31:10;;;;;;;28.15;16.93;;;;;;;23.49;90.74;98322.38;1754026;81;21088;-87
2022/08/24 10:33:56;;;;;;;40.90;17.52;;;;;;;23.31;91.12;98328.04;1728637;81;21159;-89
2022/08/24 10:36:54;;;;;;;31.97;18.30;;;;;;;23.16;91.39;98329.66;1750359;81;21531;-90
2022/08/24 10:39:56;;;;;;;31.30;16.12;;;;;;;22.96;93.19;98330.67;1742480;80;21077;-90
2022/08/24 10:46:01;;;;;;;31.15;16.77;;;;;;;22.90;93.86;98327.94;1755480;81;21038;-89
2022/08/24 10:48:53;;;;;;;34.08;17.40;;;;;;;22.87;93.92;98330.84;1746578;81;21002;-87
2022/08/24 10:51:35;;;;;;;28.52;16.20;;;;;;;22.72;93.99;98329.59;1751072;79;21545;-87
2022/08/24 10:54:03;;;;;;;26.93;16.00;;;;;;;22.63;94.33;98328.95;1743969;79;21399;-91
2022/08/24 10:56:40;;;;;;;26.30;16.30;;;;;;;22.55;94.20;98328.52;1730214;80;21046;-87
2022/08/24 10:59:27;;;;;;;27.03;16.40;;;;;;;22.54;94.69;98335.20;1748354;81;21477;-87
2022/08/24 11:02:04;;;;;;;32.38;18.30;;;;;;;22.49;95.48;98329.37;1747423;81;21487;-87
2022/08/24 11:04:31;;;;;;;30.32;17.42;;;;;;;22.47;95.76;98330.84;1746296;79;21278;-90
2022/08/24 11:07:17;;;;;;;29.42;16.02;;;;;;;22.48;95.98;98331.10;1748109;81;20997;-91
2022/08/24 11:09:59;;;;;;;31.30;16.82;;;;;;;22.63;96.40;98327.57;1749947;81;21091;-86
2022/08/24 11:12:34;;;;;;;24.57;15.15;;;;;;;22.81;96.34;98323.34;1762621;81;22228;-90
2022/08/24 11:15:11;;;;;;;32.67;16.07;;;;;;;22.78;95.19;98326.82;1758996;79;21029;-89
2022/08/24 11:17:38;;;;;;;31.77;15.15;;;;;;;22.94;95.30;98331.03;1739426;81;21131;-87
2022/08/24 11:20:12;;;;;;;32.00;15.40;;;;;;;23.06;94.50;98328.77;1706562;81;21538;-87
2022/08/24 11:22:58;;;;;;;33.75;14.38;;;;;;;23.20;93.82;98328.35;1723974;81;21014;-90
2022/08/24 11:25:31;;;;;;;35.43;14.40;;;;;;;23.42;94.31;98326.38;1737812;81;21276;-87
2022/08/24 11:28:09;;;;;;;30.27;14.60;;;;;;;23.55;92.12;98320.95;1745733;80;21048;-87
2022/08/24 11:30:39;;;;;;;29.55;14.20;;;;;;;23.61;91.31;98316.79;1749444;81;21112;-90
2022/08/24 11:33:07;;;;;;;27.10;14.05;;;;;;;23.85;92.37;98318.55;1726663;81;21515;-87
2022/08/24 11:35:37;;;;;;;30.95;14.68;;;;;;;23.97;91.83;98312.67;1738455;81;21465;-87
2022/08/24 11:38:16;;;;;;;32.88;14.50;;;;;;;24.03;91.31;98314.80;1751232;79;21035;-88
2022/08/24 11:41:11;;;;;;;30.95;14.75;;;;;;;24.11;89.63;98317.95;1747645;79;21371;-91
2022/08/24 11:44:10;;;;;;;25.75;12.28;;;;;;;24.20;90.73;98318.55;1740174;81;21287;-90